Time;durP1;ratioP1;P1;durP2;ratioP2;P2;SDS_P1;SDS_P2;PMS_P1;PMS_P2;Temp;Humidity;BMP_temperature;BMP_pressure;BME280_temperature;BME280_humidity;BME280_pressure;Samples;Min_cycle;Max_cycle;Signal;HPM_P1;HPM_P2
2022/05/08 00:00:29;;;;;;;4.18;3.40;;;10.40;99.90;;;;;;5065919;28;20024;-76
2022/05/08 00:02:55;;;;;;;4.45;3.55;;;10.50;99.90;;;;;;5079210;28;20038;-76
2022/05/08 00:05:21;;;;;;;4.07;3.22;;;10.70;99.90;;;;;;5057994;28;20038;-76
2022/05/08 00:07:47;;;;;;;4.35;3.15;;;10.80;99.90;;;;;;5072704;28;20020;-76
2022/05/08 00:10:12;;;;;;;4.88;2.90;;;10.90;99.90;;;;;;5058853;28;20050;-76
2022/05/08 00:12:38;;;;;;;4.68;3.40;;;11.00;99.90;;;;;;5071032;28;20031;-76
2022/05/08 00:15:04;;;;;;;4.53;3.50;;;11.10;99.90;;;;;;5067608;28;20021;-76
2022/05/08 00:17:34;;;;;;;4.20;2.90;;;10.90;99.90;;;;;;5062755;28;20056;-76
2022/05/08 00:20:03;;;;;;;4.82;3.53;;;10.70;99.90;;;;;;5059050;28;20025;-75
2022/05/08 00:22:29;;;;;;;5.10;3.08;;;10.60;99.90;;;;;;5058974;28;20037;-74
2022/05/08 00:24:55;;;;;;;4.18;2.92;;;10.70;99.90;;;;;;5065729;28;20032;-74
2022/05/08 00:27:21;;;;;;;3.33;3.03;;;10.80;99.90;;;;;;5064960;28;20470;-75
2022/05/08 00:29:46;;;;;;;5.30;3.05;;;10.40;99.90;;;;;;5052965;28;20083;-77
2022/05/08 00:32:12;;;;;;;4.88;3.35;;;10.50;99.90;;;;;;5051707;28;20037;-75
2022/05/08 00:34:37;;;;;;;4.18;3.17;;;10.50;99.90;;;;;;5065524;28;20032;-76
2022/05/08 00:37:03;;;;;;;3.63;3.10;;;10.50;99.90;;;;;;5050835;28;20028;-76
2022/05/08 00:39:29;;;;;;;4.68;3.30;;;10.70;99.90;;;;;;5057293;28;20031;-76
2022/05/08 00:41:54;;;;;;;5.38;3.50;;;10.60;99.90;;;;;;5058268;28;20035;-77
2022/05/08 00:44:20;;;;;;;5.70;3.38;;;10.60;99.90;;;;;;5065669;28;20430;-77
2022/05/08 00:46:45;;;;;;;4.40;3.22;;;10.60;99.90;;;;;;5064015;28;20075;-76
2022/05/08 00:49:11;;;;;;;3.92;3.15;;;10.50;99.90;;;;;;5057526;28;20016;-76
2022/05/08 00:51:37;;;;;;;4.13;3.50;;;10.60;99.90;;;;;;5059842;28;20024;-76
2022/05/08 00:54:04;;;;;;;4.13;3.30;;;10.70;99.90;;;;;;5066093;28;20089;-77
2022/05/08 00:56:30;;;;;;;5.00;3.45;;;10.70;99.90;;;;;;5065991;28;20024;-76
2022/05/08 00:58:56;;;;;;;3.97;3.25;;;10.50;99.90;;;;;;5058139;28;20486;-77
2022/05/08 01:01:22;;;;;;;5.75;3.30;;;10.40;99.90;;;;;;5058879;28;20113;-76
2022/05/08 01:03:48;;;;;;;5.32;3.47;;;10.30;99.90;;;;;;5065413;28;20064;-76
2022/05/08 01:06:16;;;;;;;4.47;3.65;;;10.30;99.90;;;;;;5064394;28;20388;-76
2022/05/08 01:08:43;;;;;;;6.78;3.63;;;10.50;99.90;;;;;;5052086;28;20025;-75
2022/05/08 01:11:10;;;;;;;4.43;3.25;;;10.60;99.90;;;;;;5062851;28;20039;-76
2022/05/08 01:13:36;;;;;;;7.35;3.55;;;10.70;99.90;;;;;;5056012;28;20021;-76
2022/05/08 01:16:05;;;;;;;5.45;3.42;;;10.70;99.90;;;;;;5073022;28;20066;-77
2022/05/08 01:18:31;;;;;;;3.92;3.40;;;10.60;99.90;;;;;;5064755;28;20029;-76
2022/05/08 01:20:57;;;;;;;4.85;3.10;;;10.50;99.90;;;;;;5064595;28;20032;-76
2022/05/08 01:23:22;;;;;;;4.80;3.30;;;10.60;99.90;;;;;;5058393;28;20024;-76
2022/05/08 01:25:51;;;;;;;4.40;3.80;;;10.50;99.90;;;;;;5057991;28;20109;-77
2022/05/08 01:28:18;;;;;;;5.32;4.05;;;10.40;99.90;;;;;;5063052;28;20478;-77
2022/05/08 01:30:45;;;;;;;4.30;3.40;;;10.30;99.90;;;;;;5064429;28;20027;-76
2022/05/08 01:33:12;;;;;;;4.03;3.70;;;10.40;99.90;;;;;;5059061;28;20048;-77
2022/05/08 01:35:38;;;;;;;4.78;3.63;;;10.50;99.90;;;;;;5056938;28;20031;-76
2022/05/08 01:38:05;;;;;;;5.25;3.60;;;10.40;99.90;;;;;;5063778;28;20648;-76
2022/05/08 01:40:31;;;;;;;5.13;3.85;;;10.20;99.90;;;;;;5062800;28;20032;-75
2022/05/08 01:42:57;;;;;;;4.40;3.90;;;9.90;99.90;;;;;;5059236;28;20536;-75
2022/05/08 01:45:23;;;;;;;4.43;4.00;;;9.60;99.90;;;;;;5056699;28;20052;-76
2022/05/08 01:50:34;;;;;;;4.53;3.45;;;9.80;99.90;;;;;;5064100;28;20047;-76
2022/05/08 01:53:00;;;;;;;4.10;3.70;;;10.00;99.90;;;;;;5049989;28;20478;-77
2022/05/08 01:55:25;;;;;;;3.80;3.40;;;10.20;99.90;;;;;;5064665;28;20056;-76
2022/05/08 01:57:53;;;;;;;7.72;3.58;;;10.20;99.90;;;;;;5060187;28;20033;-77
2022/05/08 02:00:19;;;;;;;4.95;3.92;;;10.20;99.90;;;;;;5052131;28;20042;-77
2022/05/08 02:02:48;;;;;;;4.78;3.97;;;10.20;99.90;;;;;;5061185;28;20059;-77
2022/05/08 02:05:17;;;;;;;5.50;3.80;;;10.30;99.90;;;;;;5057810;28;20032;-76
2022/05/08 02:07:44;;;;;;;4.70;3.28;;;10.10;99.90;;;;;;5069743;28;20021;-76
2022/05/08 02:10:10;;;;;;;5.18;3.28;;;10.10;99.90;;;;;;5057936;28;20024;-76
2022/05/08 02:12:35;;;;;;;3.83;3.40;;;10.10;99.90;;;;;;5058095;28;20029;-77
2022/05/08 02:15:01;;;;;;;4.63;3.70;;;10.00;99.90;;;;;;5064391;28;20017;-76
2022/05/08 02:17:27;;;;;;;4.25;3.25;;;9.90;99.90;;;;;;5062616;28;20103;-76
2022/05/08 02:19:52;;;;;;;5.03;3.20;;;10.00;99.90;;;;;;5051521;28;20032;-76
2022/05/08 02:22:18;;;;;;;5.03;3.53;;;9.90;99.90;;;;;;5050223;28;20364;-76
2022/05/08 02:24:43;;;;;;;5.53;3.80;;;9.90;99.90;;;;;;5064460;28;20026;-75
2022/05/08 02:27:09;;;;;;;6.10;3.65;;;10.00;99.90;;;;;;5064368;28;20016;-76
2022/05/08 02:29:35;;;;;;;5.50;3.70;;;9.70;99.90;;;;;;5059877;28;20553;-76
2022/05/08 02:32:00;;;;;;;3.60;3.30;;;9.60;99.90;;;;;;5062842;28;20415;-76
2022/05/08 02:34:26;;;;;;;4.40;3.60;;;9.60;99.90;;;;;;5066843;28;20031;-76
2022/05/08 02:36:51;;;;;;;5.35;3.75;;;9.40;99.90;;;;;;5064313;28;20024;-77
2022/05/08 02:39:17;;;;;;;4.97;3.67;;;9.40;99.90;;;;;;5061978;28;20070;-77
2022/05/08 02:41:42;;;;;;;4.75;3.42;;;9.20;99.90;;;;;;5061808;28;20124;-77
2022/05/08 02:44:08;;;;;;;5.40;4.18;;;9.20;99.90;;;;;;5066428;28;20033;-77
2022/05/08 02:46:33;;;;;;;6.38;3.50;;;9.20;99.90;;;;;;5063584;28;20081;-76
2022/05/08 02:48:58;;;;;;;3.92;3.42;;;9.20;99.90;;;;;;5059296;28;20079;-76
2022/05/08 02:51:24;;;;;;;4.95;3.70;;;9.00;99.90;;;;;;5063175;28;20056;-75
2022/05/08 02:53:51;;;;;;;3.55;3.22;;;9.10;99.90;;;;;;5066287;28;20071;-76
2022/05/08 02:59:00;;;;;;;4.00;3.55;;;9.30;99.90;;;;;;5060504;28;20039;-76
2022/05/08 03:01:26;;;;;;;5.47;3.35;;;9.50;99.90;;;;;;5070907;28;20399;-76
2022/05/08 03:03:51;;;;;;;8.23;3.40;;;9.30;99.90;;;;;;5067729;28;20139;-76
2022/05/08 03:06:17;;;;;;;4.35;3.60;;;9.20;99.90;;;;;;5066833;28;20157;-76
2022/05/08 03:08:43;;;;;;;4.05;3.65;;;9.40;99.90;;;;;;5061751;28;20036;-77
2022/05/08 03:11:26;;;;;;;4.45;3.53;;;9.60;99.90;;;;;;5063723;28;20119;-77
2022/05/08 03:13:53;;;;;;;5.35;3.45;;;9.50;99.90;;;;;;5067155;28;20594;-78
2022/05/08 03:16:19;;;;;;;4.82;3.50;;;9.30;99.90;;;;;;5059757;28;20095;-76
2022/05/08 03:18:47;;;;;;;6.03;3.58;;;9.30;99.90;;;;;;5064873;28;20025;-76
2022/05/08 03:21:13;;;;;;;5.32;3.65;;;9.40;99.90;;;;;;5066409;28;20029;-76
2022/05/08 03:23:40;;;;;;;7.10;3.22;;;9.50;99.90;;;;;;5062478;28;20020;-75
2022/05/08 03:26:06;;;;;;;4.57;3.42;;;9.50;99.90;;;;;;5060047;28;20032;-75
2022/05/08 03:28:32;;;;;;;6.38;3.50;;;9.30;99.90;;;;;;5064330;28;20089;-75
2022/05/08 03:31:01;;;;;;;5.80;4.20;;;9.10;99.90;;;;;;5066287;28;20029;-76
2022/05/08 03:33:28;;;;;;;4.07;3.30;;;9.10;99.90;;;;;;5061671;28;20111;-76
2022/05/08 03:35:53;;;;;;;4.68;3.75;;;9.10;99.90;;;;;;5059638;28;20107;-76
2022/05/08 03:38:19;;;;;;;7.10;4.35;;;8.80;99.90;;;;;;5063089;28;20506;-75
2022/05/08 03:40:45;;;;;;;5.53;4.00;;;9.00;99.90;;;;;;5052673;28;20116;-77
2022/05/08 03:43:10;;;;;;;4.20;3.75;;;9.20;99.90;;;;;;5061431;28;20382;-77
2022/05/08 03:45:36;;;;;;;5.00;4.00;;;9.30;99.90;;;;;;5059696;28;20029;-76
2022/05/08 03:48:02;;;;;;;4.57;3.70;;;9.50;99.90;;;;;;5064982;28;20044;-76
2022/05/08 03:50:29;;;;;;;7.22;4.35;;;9.30;99.90;;;;;;5067495;28;20571;-76
2022/05/08 03:52:55;;;;;;;4.53;4.10;;;9.30;99.90;;;;;;5063337;28;20044;-77
2022/05/08 03:55:21;;;;;;;7.30;4.80;;;9.20;99.90;;;;;;5058160;28;20376;-77
2022/05/08 03:57:46;;;;;;;6.90;4.90;;;9.00;99.90;;;;;;5053224;28;20025;-77
2022/05/08 04:00:13;;;;;;;4.63;4.22;;;9.00;99.90;;;;;;5064361;28;20047;-77
2022/05/08 04:02:39;;;;;;;5.28;4.18;;;8.90;99.90;;;;;;5053332;28;20099;-77
2022/05/08 04:05:06;;;;;;;4.57;4.18;;;8.90;99.90;;;;;;5085277;28;20383;-77
2022/05/08 04:07:32;;;;;;;5.47;4.18;;;8.90;99.90;;;;;;5071514;28;20632;-77
2022/05/08 04:09:58;;;;;;;5.63;4.50;;;9.10;99.90;;;;;;5056738;28;20036;-77
2022/05/08 04:12:24;;;;;;;5.63;4.10;;;9.20;99.90;;;;;;5052332;28;20079;-76
2022/05/08 04:14:50;;;;;;;5.03;4.18;;;8.90;99.90;;;;;;5064289;28;20115;-76
2022/05/08 04:17:16;;;;;;;5.85;4.30;;;8.80;99.90;;;;;;5062893;28;20112;-76
2022/05/08 04:19:42;;;;;;;7.85;4.28;;;9.00;99.90;;;;;;5064565;28;20029;-76
2022/05/08 04:24:52;;;;;;;6.13;4.43;;;8.90;99.90;;;;;;5053401;28;20119;-75
2022/05/08 04:27:18;;;;;;;4.43;4.03;;;8.50;99.90;;;;;;5064903;28;20031;-75
2022/05/08 04:29:43;;;;;;;5.53;4.45;;;8.60;99.90;;;;;;5059550;28;20364;-75
2022/05/08 04:32:09;;;;;;;7.47;4.55;;;8.70;99.90;;;;;;5059625;28;20094;-75
2022/05/08 04:34:34;;;;;;;5.03;4.53;;;8.90;99.90;;;;;;5071385;28;20032;-75
2022/05/08 04:37:00;;;;;;;5.07;4.05;;;9.00;99.90;;;;;;5071175;28;20032;-75
2022/05/08 04:39:25;;;;;;;5.43;4.93;;;9.00;99.90;;;;;;5067324;28;20029;-75
2022/05/08 04:41:52;;;;;;;5.72;5.05;;;9.10;99.90;;;;;;5062413;28;20020;-75
2022/05/08 04:44:17;;;;;;;7.10;4.72;;;9.10;99.90;;;;;;5058975;28;20016;-75
2022/05/08 04:46:43;;;;;;;6.53;4.63;;;9.00;99.90;;;;;;5059388;28;20382;-75
2022/05/08 04:49:09;;;;;;;6.47;4.70;;;9.10;99.90;;;;;;5065533;28;20517;-75
2022/05/08 04:51:34;;;;;;;6.65;5.15;;;9.10;99.90;;;;;;5061680;28;20031;-75
2022/05/08 04:54:00;;;;;;;5.70;4.63;;;9.40;99.90;;;;;;5057395;28;20024;-75
2022/05/08 04:56:25;;;;;;;5.60;4.55;;;9.20;99.90;;;;;;5060298;28;20056;-77
2022/05/08 04:58:51;;;;;;;5.15;4.65;;;9.30;99.90;;;;;;5063836;28;20029;-77
2022/05/08 05:01:16;;;;;;;6.30;4.82;;;9.30;99.90;;;;;;5051249;28;20028;-74
2022/05/08 05:03:42;;;;;;;5.35;4.47;;;9.40;99.90;;;;;;5063501;28;20029;-74
2022/05/08 05:06:07;;;;;;;5.65;4.10;;;9.50;99.90;;;;;;5063602;28;20031;-75
2022/05/08 05:08:33;;;;;;;7.07;4.50;;;9.60;99.90;;;;;;5056771;28;20023;-76
2022/05/08 05:10:59;;;;;;;5.38;4.47;;;9.70;99.90;;;;;;5058958;28;20457;-74
2022/05/08 05:13:25;;;;;;;5.78;4.70;;;9.70;99.90;;;;;;5067953;28;20439;-74
2022/05/08 05:15:51;;;;;;;5.10;4.60;;;9.80;99.90;;;;;;5059555;28;20047;-75
2022/05/08 05:18:17;;;;;;;6.00;4.78;;;10.00;99.90;;;;;;5064355;28;20162;-75
2022/05/08 05:20:42;;;;;;;5.60;4.60;;;10.10;99.90;;;;;;5060011;28;20120;-75
2022/05/08 05:23:08;;;;;;;7.63;4.90;;;10.40;99.90;;;;;;5066120;28;20155;-74
2022/05/08 05:25:34;;;;;;;7.43;4.85;;;10.40;99.90;;;;;;5060605;28;20016;-74
2022/05/08 05:27:59;;;;;;;6.72;4.88;;;10.40;99.90;;;;;;5066099;28;20029;-74
2022/05/08 05:30:25;;;;;;;6.13;5.25;;;10.40;99.90;;;;;;5078972;28;20020;-75
2022/05/08 05:32:51;;;;;;;5.70;4.60;;;10.50;99.90;;;;;;5057273;28;20077;-73
2022/05/08 05:35:16;;;;;;;5.60;4.70;;;10.70;99.90;;;;;;5059338;28;20398;-74
2022/05/08 05:37:42;;;;;;;6.05;4.55;;;10.90;99.90;;;;;;5062702;28;20499;-75
2022/05/08 05:40:08;;;;;;;7.43;5.35;;;11.10;99.90;;;;;;5061697;28;20028;-75
2022/05/08 05:42:34;;;;;;;5.68;5.07;;;11.40;99.90;;;;;;5052031;28;20471;-75
2022/05/08 05:44:59;;;;;;;7.13;5.18;;;11.70;99.90;;;;;;5061519;28;20028;-75
2022/05/08 05:50:10;;;;;;;8.15;5.88;;;12.00;99.90;;;;;;5057249;28;20036;-75
2022/05/08 05:52:36;;;;;;;6.55;5.35;;;12.20;99.90;;;;;;5069103;28;20024;-75
2022/05/08 05:55:06;;;;;;;6.22;5.10;;;12.40;99.90;;;;;;5056685;28;20446;-75
2022/05/08 05:57:35;;;;;;;6.78;5.63;;;12.50;99.90;;;;;;5050298;28;20475;-75
2022/05/08 06:00:05;;;;;;;7.20;5.78;;;12.60;99.90;;;;;;5065274;28;20048;-75
2022/05/08 06:02:31;;;;;;;6.13;4.85;;;12.70;99.90;;;;;;5083210;28;20110;-75
2022/05/08 06:04:57;;;;;;;6.80;6.10;;;12.80;99.90;;;;;;5014672;28;1288690;-75
2022/05/08 06:07:22;;;;;;;6.85;5.72;;;12.90;99.90;;;;;;5065087;28;20025;-75
2022/05/08 06:09:48;;;;;;;6.82;6.13;;;13.00;99.90;;;;;;5068417;28;20031;-75
2022/05/08 06:12:13;;;;;;;8.05;6.53;;;13.10;99.90;;;;;;5062724;28;20062;-75
2022/05/08 06:14:40;;;;;;;7.68;6.85;;;13.20;99.90;;;;;;5061261;28;20021;-75
2022/05/08 06:17:06;;;;;;;10.43;7.22;;;13.30;99.90;;;;;;5066369;28;20021;-75
2022/05/08 06:19:32;;;;;;;14.05;7.03;;;13.40;99.90;;;;;;5055006;28;20486;-74
2022/05/08 06:21:58;;;;;;;10.35;7.38;;;13.60;99.90;;;;;;5062373;28;20073;-75
2022/05/08 06:24:23;;;;;;;9.63;7.93;;;13.70;99.90;;;;;;5059718;28;20104;-75
2022/05/08 06:26:49;;;;;;;9.13;8.13;;;13.90;99.90;;;;;;5058057;28;20034;-75
2022/05/08 06:29:15;;;;;;;8.52;7.68;;;14.10;99.90;;;;;;5062364;28;20083;-75
2022/05/08 06:31:40;;;;;;;10.15;8.18;;;14.20;99.90;;;;;;5082619;28;20449;-75
2022/05/08 06:34:08;;;;;;;8.80;7.90;;;14.30;99.90;;;;;;5074449;28;20094;-75
2022/05/08 06:36:33;;;;;;;8.43;7.57;;;14.40;99.90;;;;;;5062692;28;20115;-75
2022/05/08 06:38:59;;;;;;;10.35;8.15;;;14.60;99.90;;;;;;5059688;28;20108;-75
2022/05/08 06:41:26;;;;;;;10.02;7.30;;;14.70;99.90;;;;;;5072488;28;20025;-75
2022/05/08 06:43:53;;;;;;;11.02;7.90;;;14.80;99.90;;;;;;5073132;28;20028;-75
2022/05/08 06:46:19;;;;;;;8.60;7.65;;;14.90;99.90;;;;;;5062299;28;20044;-75
2022/05/08 06:48:44;;;;;;;8.43;7.47;;;15.00;99.90;;;;;;5059515;28;20415;-75
2022/05/08 06:51:11;;;;;;;11.23;7.60;;;15.10;99.90;;;;;;5064627;28;20028;-75
2022/05/08 06:53:36;;;;;;;11.85;8.07;;;15.20;99.90;;;;;;5067511;28;20024;-75
2022/05/08 06:56:02;;;;;;;8.00;6.65;;;15.30;99.90;;;;;;5060542;28;20074;-75
2022/05/08 06:58:28;;;;;;;10.73;7.57;;;15.50;99.90;;;;;;5059531;28;20033;-75
2022/05/08 07:03:37;;;;;;;9.68;7.30;;;15.60;99.90;;;;;;5070066;28;20102;-75
2022/05/08 07:06:03;;;;;;;12.65;9.55;;;15.70;99.90;;;;;;5063363;28;20490;-75
2022/05/08 07:08:29;;;;;;;10.35;7.63;;;15.80;99.90;;;;;;5068816;28;20474;-75
2022/05/08 07:10:54;;;;;;;10.82;7.78;;;16.00;99.90;;;;;;5063323;28;20043;-75
2022/05/08 07:13:26;;;;;;;8.60;7.32;;;16.00;99.90;;;;;;5068888;28;20029;-75
2022/05/08 07:15:52;;;;;;;8.98;6.95;;;16.00;99.90;;;;;;5053764;28;20112;-75
2022/05/08 07:18:19;;;;;;;8.73;7.82;;;16.20;99.90;;;;;;5061303;28;20017;-75
2022/05/08 07:20:44;;;;;;;8.23;7.15;;;16.30;99.90;;;;;;5062873;28;20028;-75
2022/05/08 07:23:11;;;;;;;7.93;7.13;;;16.40;99.90;;;;;;5070557;28;20025;-75
2022/05/08 07:25:38;;;;;;;8.77;6.93;;;16.50;99.90;;;;;;5063430;28;20027;-75
2022/05/08 07:28:04;;;;;;;7.35;6.57;;;16.70;99.90;;;;;;5067740;28;20104;-75
2022/05/08 07:30:29;;;;;;;8.05;6.43;;;16.90;99.90;;;;;;5062906;28;20124;-75
2022/05/08 07:32:56;;;;;;;8.05;6.38;;;17.00;99.90;;;;;;5068868;28;20029;-75
2022/05/08 07:38:06;;;;;;;6.75;6.05;;;17.10;99.90;;;;;;5061033;28;20047;-75
2022/05/08 07:40:33;;;;;;;8.80;7.30;;;17.60;99.90;;;;;;5059128;28;20033;-76
2022/05/08 07:42:59;;;;;;;8.27;6.85;;;17.60;99.90;;;;;;5064423;28;20536;-75
2022/05/08 07:45:24;;;;;;;9.57;6.78;;;17.70;99.90;;;;;;5052326;28;20120;-75
2022/05/08 07:47:50;;;;;;;8.43;6.82;;;17.60;99.90;;;;;;5064279;28;20021;-75
2022/05/08 07:50:15;;;;;;;7.78;6.82;;;17.40;99.90;;;;;;5065638;28;20106;-76
2022/05/08 07:52:41;;;;;;;9.65;6.95;;;17.30;99.90;;;;;;5060561;28;20414;-76
2022/05/08 07:55:07;;;;;;;8.88;6.35;;;17.50;99.90;;;;;;5059459;28;20033;-76
2022/05/08 07:57:33;;;;;;;9.65;6.63;;;17.80;99.90;;;;;;5065032;28;20029;-76
2022/05/08 07:59:59;;;;;;;6.82;6.13;;;18.20;99.90;;;;;;5066420;28;20024;-76
2022/05/08 08:02:25;;;;;;;8.93;6.97;;;18.20;99.90;;;;;;5064623;28;20394;-75
2022/05/08 08:04:51;;;;;;;10.18;7.72;;;18.10;99.90;;;;;;5064614;28;20051;-75
2022/05/08 08:07:17;;;;;;;9.60;6.78;;;18.10;99.90;;;;;;5060668;28;20028;-76
2022/05/08 08:09:42;;;;;;;7.95;6.97;;;18.20;99.90;;;;;;5058385;28;20047;-75
2022/05/08 08:12:08;;;;;;;7.38;6.07;;;17.90;99.90;;;;;;5060044;28;20048;-73
2022/05/08 08:14:33;;;;;;;7.10;6.10;;;18.00;99.90;;;;;;5057758;28;20376;-76
2022/05/08 08:16:59;;;;;;;9.60;5.88;;;18.10;99.90;;;;;;5052667;28;20032;-77
2022/05/08 08:19:25;;;;;;;7.50;5.93;;;18.20;99.90;;;;;;5065883;28;20032;-76
2022/05/08 08:21:50;;;;;;;7.88;6.18;;;18.30;99.90;;;;;;5059805;28;20055;-76
2022/05/08 08:24:16;;;;;;;8.45;6.13;;;18.20;99.90;;;;;;5063489;28;20056;-77
2022/05/08 08:26:42;;;;;;;9.15;6.50;;;18.30;99.90;;;;;;5064861;28;20033;-77
2022/05/08 08:29:08;;;;;;;11.13;6.75;;;18.30;99.90;;;;;;5053230;28;20032;-76
2022/05/08 08:31:33;;;;;;;9.80;6.53;;;18.30;99.90;;;;;;5064251;28;20029;-76
2022/05/08 08:33:59;;;;;;;9.38;6.78;;;18.20;99.90;;;;;;5065825;28;20160;-76
2022/05/08 08:36:24;;;;;;;8.50;7.47;;;18.30;99.90;;;;;;5052343;28;20021;-76
2022/05/08 08:38:50;;;;;;;10.52;6.80;;;18.20;99.90;;;;;;5064669;28;20111;-76
2022/05/08 08:41:20;;;;;;;9.07;6.65;;;18.40;99.90;;;;;;5064528;28;20041;-76
2022/05/08 08:49:23;;;;;;;6.50;5.80;;;18.80;99.90;;;;;;5058903;28;20031;-77
2022/05/08 08:51:49;;;;;;;8.60;5.45;;;18.80;99.90;;;;;;5056666;28;20044;-77
2022/05/08 08:54:19;;;;;;;7.60;6.28;;;18.90;99.90;;;;;;5065359;28;20063;-76
2022/05/08 08:56:45;;;;;;;9.18;5.95;;;18.80;99.90;;;;;;5069965;28;20032;-75
2022/05/08 08:59:11;;;;;;;7.68;5.53;;;18.90;99.90;;;;;;5063569;28;20112;-77
2022/05/08 09:01:41;;;;;;;6.30;5.55;;;19.00;99.90;;;;;;5054542;28;20151;-77
2022/05/08 09:04:08;;;;;;;7.47;5.40;;;19.00;99.90;;;;;;5061919;28;20025;-76
2022/05/08 09:06:42;;;;;;;5.90;5.03;;;19.00;99.90;;;;;;5065590;28;20483;-77
2022/05/08 09:09:24;;;;;;;7.70;5.55;;;19.10;99.90;;;;;;5062216;28;20492;-77
2022/05/08 09:11:50;;;;;;;6.03;5.03;;;19.10;99.90;;;;;;5064545;28;20039;-76
2022/05/08 09:14:33;;;;;;;11.68;4.97;;;19.10;99.90;;;;;;5063190;28;20077;-77
2022/05/08 09:17:00;;;;;;;6.38;4.55;;;19.10;99.90;;;;;;5074060;28;20077;-76
2022/05/08 09:19:40;;;;;;;7.72;4.80;;;19.20;99.90;;;;;;5058215;28;20017;-76
2022/05/08 09:22:08;;;;;;;8.00;4.63;;;19.30;99.90;;;;;;5062154;28;20037;-76
2022/05/08 09:24:37;;;;;;;7.28;4.28;;;18.90;99.90;;;;;;5063484;28;20051;-77
2022/05/08 09:27:13;;;;;;;8.38;4.53;;;19.20;99.90;;;;;;5060775;28;20039;-77
2022/05/08 09:29:39;;;;;;;;;;;19.30;99.90;;;;;;5058341;28;20027;-77
2022/05/08 09:32:05;;;;;;;7.28;5.63;;;19.40;99.90;;;;;;5071402;28;20350;-76
2022/05/08 09:34:57;;;;;;;6.07;5.15;;;19.60;99.90;;;;;;5079382;28;20489;-76
2022/05/08 09:37:23;;;;;;;6.50;5.20;;;19.20;99.90;;;;;;5062145;28;20554;-77
2022/05/08 09:39:48;;;;;;;9.43;5.78;;;19.30;99.90;;;;;;5066645;28;20082;-77
2022/05/08 09:42:37;;;;;;;5.40;4.70;;;19.10;99.90;;;;;;5080037;28;20054;-76
2022/05/08 09:45:07;;;;;;;8.68;4.88;;;19.20;99.90;;;;;;5082663;28;20027;-77
2022/05/08 09:47:46;;;;;;;6.00;4.50;;;19.60;99.90;;;;;;5061097;28;20024;-77
2022/05/08 09:50:13;;;;;;;6.95;4.45;;;19.60;99.90;;;;;;5061541;28;20099;-77
2022/05/08 09:52:40;;;;;;;6.63;4.63;;;19.70;99.90;;;;;;5057156;28;20029;-77
2022/05/08 09:55:10;;;;;;;7.65;5.22;;;19.80;99.90;;;;;;5064159;28;20029;-77
2022/05/08 09:57:36;;;;;;;7.65;4.30;;;19.50;99.90;;;;;;5075192;28;20066;-77
2022/05/08 10:00:03;;;;;;;4.50;4.05;;;19.30;99.90;;;;;;5061009;28;20074;-77
2022/05/08 10:02:29;;;;;;;6.70;4.43;;;19.10;99.90;;;;;;5061633;28;20115;-76
2022/05/08 10:04:55;;;;;;;7.72;3.83;;;19.20;99.90;;;;;;5074027;28;20147;-77
2022/05/08 10:07:22;;;;;;;8.02;4.32;;;19.20;99.90;;;;;;5085484;28;20033;-77
2022/05/08 10:15:18;;;;;;;6.35;4.70;;;20.20;99.90;;;;;;5064697;28;20601;-77
2022/05/08 10:17:44;;;;;;;8.50;3.78;;;20.00;99.90;;;;;;5078461;28;20047;-77
2022/05/08 10:20:09;;;;;;;7.15;3.70;;;19.80;99.90;;;;;;5071044;28;20028;-77
2022/05/08 10:22:49;;;;;;;5.45;3.78;;;19.70;99.90;;;;;;5069982;28;20033;-76
2022/05/08 10:25:18;;;;;;;8.98;4.45;;;19.80;99.90;;;;;;5062021;28;20017;-76
2022/05/08 10:28:19;;;;;;;5.15;4.25;;;20.10;99.90;;;;;;5058977;28;20431;-77
2022/05/08 10:30:44;;;;;;;8.40;4.15;;;19.90;99.90;;;;;;5029977;28;20144;-77
2022/05/08 10:33:10;;;;;;;6.90;4.30;;;19.70;99.90;;;;;;5049225;28;20112;-76
2022/05/08 10:35:36;;;;;;;6.38;4.18;;;19.90;99.90;;;;;;5067796;28;20102;-76
2022/05/08 10:38:07;;;;;;;6.28;4.00;;;20.50;99.90;;;;;;5067662;28;20031;-76
2022/05/08 10:40:34;;;;;;;5.35;3.88;;;20.70;99.90;;;;;;5065658;28;20021;-77
2022/05/08 10:43:19;;;;;;;6.30;4.00;;;20.70;99.90;;;;;;5061191;28;20478;-76
2022/05/08 10:45:46;;;;;;;7.35;4.20;;;20.60;99.90;;;;;;5060555;28;20102;-76
2022/05/08 10:48:19;;;;;;;6.78;3.70;;;20.50;99.90;;;;;;5063772;28;20049;-76
2022/05/08 10:50:50;;;;;;;7.07;4.50;;;20.60;99.90;;;;;;5067072;28;20021;-76
2022/05/08 10:53:25;;;;;;;6.38;3.97;;;21.20;99.90;;;;;;5066192;28;20020;-76
2022/05/08 10:55:57;;;;;;;6.93;4.13;;;21.70;99.90;;;;;;5059996;28;20098;-77
2022/05/08 10:58:23;;;;;;;6.10;4.50;;;22.20;99.90;;;;;;5066589;28;20081;-77
2022/05/08 11:00:48;;;;;;;6.07;4.20;;;21.90;99.90;;;;;;5085231;28;20440;-77
2022/05/08 11:03:21;;;;;;;4.60;3.88;;;21.50;99.90;;;;;;5060521;28;20057;-77
2022/05/08 11:05:47;;;;;;;4.70;4.10;;;21.20;99.90;;;;;;5078452;28;20099;-76
2022/05/08 11:08:31;;;;;;;6.90;4.40;;;21.20;99.90;;;;;;5060414;28;20040;-77
2022/05/08 11:11:03;;;;;;;6.90;4.57;;;21.00;99.90;;;;;;5062349;28;20036;-77
2022/05/08 11:13:42;;;;;;;6.45;4.45;;;20.60;99.90;;;;;;5079927;28;20052;-77
2022/05/08 11:16:08;;;;;;;6.05;4.20;;;20.50;99.90;;;;;;5077637;28;20025;-76
2022/05/08 11:18:34;;;;;;;6.40;4.00;;;21.10;99.90;;;;;;5074957;28;20445;-77
2022/05/08 11:21:02;;;;;;;5.85;4.28;;;21.40;99.90;;;;;;5077998;28;20103;-77
2022/05/08 11:23:30;;;;;;;5.15;4.57;;;21.90;99.90;;;;;;5066354;28;20031;-77
2022/05/08 11:25:58;;;;;;;6.20;4.35;;;22.10;99.90;;;;;;5066782;28;20041;-76
2022/05/08 11:28:24;;;;;;;6.65;4.15;;;23.00;99.90;;;;;;5059987;28;20024;-76
2022/05/08 11:30:52;;;;;;;5.93;4.30;;;23.30;99.90;;;;;;5058512;28;20116;-77
2022/05/08 11:36:06;;;;;;;4.45;3.92;;;22.90;98.70;;;;;;5082458;28;20132;-76
2022/05/08 11:38:41;;;;;;;4.95;3.95;;;22.50;99.10;;;;;;5063789;28;20056;-77
2022/05/08 11:41:12;;;;;;;6.10;4.05;;;21.90;99.50;;;;;;5054058;28;20083;-77
2022/05/08 11:43:40;;;;;;;4.35;3.40;;;21.30;99.30;;;;;;5066232;28;20032;-77
2022/05/08 11:46:06;;;;;;;4.28;3.85;;;21.90;99.00;;;;;;5068578;28;20071;-77
2022/05/08 11:48:37;;;;;;;4.97;3.70;;;22.80;97.20;;;;;;5066516;28;20025;-77
2022/05/08 11:51:07;;;;;;;7.13;3.60;;;23.30;97.20;;;;;;5060264;28;20078;-77
2022/05/08 11:53:45;;;;;;;6.35;4.55;;;23.50;96.80;;;;;;5064772;28;20025;-77
2022/05/08 11:56:28;;;;;;;5.22;4.00;;;23.00;97.60;;;;;;5072077;28;20021;-77
2022/05/08 11:58:58;;;;;;;5.72;3.88;;;22.50;99.90;;;;;;5058483;28;20035;-77
2022/05/08 12:01:29;;;;;;;5.78;4.00;;;22.60;99.90;;;;;;5085064;28;20023;-77
2022/05/08 12:03:57;;;;;;;4.30;3.88;;;22.40;99.70;;;;;;5067884;28;20031;-76
2022/05/08 12:06:23;;;;;;;6.60;3.58;;;22.90;98.40;;;;;;5066414;28;20078;-77
2022/05/08 12:08:51;;;;;;;4.40;4.00;;;23.00;97.00;;;;;;5060894;28;20626;-77
2022/05/08 12:11:47;;;;;;;4.57;3.67;;;22.70;97.80;;;;;;5079055;28;20074;-76
2022/05/08 12:14:12;;;;;;;6.55;3.85;;;23.00;98.50;;;;;;5051034;28;20028;-77
2022/05/08 12:16:38;;;;;;;4.10;3.67;;;22.90;97.90;;;;;;5085846;28;20054;-77
2022/05/08 12:19:11;;;;;;;4.78;3.50;;;23.40;97.40;;;;;;5061036;28;20051;-77
2022/05/08 12:21:38;;;;;;;7.25;4.30;;;23.80;96.70;;;;;;5068370;28;20119;-76
2022/05/08 12:24:22;;;;;;;4.20;3.80;;;23.90;97.70;;;;;;5072616;28;20146;-77
2022/05/08 12:26:48;;;;;;;6.22;4.07;;;23.70;95.50;;;;;;5060384;28;20051;-76
2022/05/08 12:29:23;;;;;;;4.43;3.60;;;23.80;96.50;;;;;;5058488;28;20021;-73
2022/05/08 12:31:52;;;;;;;5.43;3.80;;;22.90;96.80;;;;;;5062781;28;20107;-77
2022/05/08 12:34:22;;;;;;;6.18;3.50;;;23.20;97.20;;;;;;5065611;28;20029;-77
2022/05/08 12:36:48;;;;;;;4.47;3.80;;;22.80;96.80;;;;;;5063169;28;20033;-73
2022/05/08 12:39:15;;;;;;;6.07;3.47;;;22.20;96.70;;;;;;5065620;28;20039;-74
2022/05/08 12:41:40;;;;;;;4.85;3.28;;;23.50;96.90;;;;;;5050404;28;20115;-76
2022/05/08 12:44:07;;;;;;;5.80;3.60;;;23.80;97.30;;;;;;5050762;28;20486;-76
2022/05/08 12:46:34;;;;;;;8.93;3.70;;;24.30;94.80;;;;;;5052022;28;20032;-75
2022/05/08 12:49:02;;;;;;;5.43;4.05;;;24.10;95.50;;;;;;5052010;28;20368;-76
2022/05/08 12:51:33;;;;;;;7.57;3.85;;;24.50;95.20;;;;;;5061162;28;20048;-76
2022/05/08 12:54:02;;;;;;;3.35;3.03;;;24.80;93.70;;;;;;5052449;28;20355;-76
2022/05/08 12:56:31;;;;;;;6.35;3.40;;;24.50;95.10;;;;;;5051046;28;20488;-76
2022/05/08 13:01:42;;;;;;;3.92;3.30;;;23.30;94.80;;;;;;5064275;28;20234;-76
2022/05/08 13:04:08;;;;;;;3.67;3.28;;;23.00;94.80;;;;;;5055522;28;20403;-76
2022/05/08 13:06:34;;;;;;;4.10;3.22;;;22.80;95.70;;;;;;5068453;28;20025;-76
2022/05/08 13:09:00;;;;;;;4.57;3.53;;;22.80;95.90;;;;;;5051556;28;20031;-76
2022/05/08 13:11:26;;;;;;;4.95;3.30;;;22.80;96.50;;;;;;5050857;28;20017;-76
2022/05/08 13:13:52;;;;;;;5.47;3.28;;;22.50;95.90;;;;;;5058684;28;20028;-76
2022/05/08 13:16:18;;;;;;;4.68;4.05;;;22.40;96.10;;;;;;5056676;28;20067;-76
2022/05/08 13:18:43;;;;;;;8.02;3.72;;;22.00;96.00;;;;;;5071491;28;20103;-76
2022/05/08 13:21:10;;;;;;;6.55;3.85;;;21.80;97.40;;;;;;5069474;28;20505;-76